TAF LELL
METAR LELL
LELL 270800Z 24007KT 210V280 9999 FEW025 08/03 Q0998=
LELL 270730Z 27008KT 230V290 9999 FEW010 SCT030 07/03 Q0998=
LELL 270700Z 20005KT 160V240 9999 FEW010 SCT030 07/03 Q0998=
LELL 270630Z AUTO 25004KT 210V300 9999 SCT036 06/03 Q0998=
LELL 270600Z AUTO 29007KT CAVOK 05/02 Q0998=
WC LELL
WS LELL
WV LELL